sensor_id;sensor_type;location;lat;lon;timestamp;pressure;altitude;pressure_sealevel;temperature;humidity
77235;BME280;66253;50.526;14.974;2023-07-31T00:01:52;98918.66;;;16.08;78.60
77235;BME280;66253;50.526;14.974;2023-07-31T00:04:20;98917.27;;;16.08;78.35
77235;BME280;66253;50.526;14.974;2023-07-31T00:06:48;98914.71;;;16.07;78.41
77235;BME280;66253;50.526;14.974;2023-07-31T00:09:16;98915.93;;;16.07;78.58
77235;BME280;66253;50.526;14.974;2023-07-31T00:11:45;98916.36;;;16.06;78.29
77235;BME280;66253;50.526;14.974;2023-07-31T00:14:13;98917.89;;;16.06;78.39
77235;BME280;66253;50.526;14.974;2023-07-31T00:16:41;98915.63;;;16.05;78.24
77235;BME280;66253;50.526;14.974;2023-07-31T00:19:11;98916.00;;;16.02;78.09
77235;BME280;66253;50.526;14.974;2023-07-31T00:21:41;98917.25;;;16.00;77.99
77235;BME280;66253;50.526;14.974;2023-07-31T00:24:10;98915.69;;;15.97;78.30
77235;BME280;66253;50.526;14.974;2023-07-31T00:26:38;98913.39;;;15.94;78.14
77235;BME280;66253;50.526;14.974;2023-07-31T00:29:06;98912.99;;;15.91;78.00
77235;BME280;66253;50.526;14.974;2023-07-31T00:31:34;98915.48;;;15.87;78.27
77235;BME280;66253;50.526;14.974;2023-07-31T00:34:03;98912.56;;;15.84;78.07
77235;BME280;66253;50.526;14.974;2023-07-31T00:36:31;98910.89;;;15.79;77.90
77235;BME280;66253;50.526;14.974;2023-07-31T00:38:59;98911.96;;;15.71;78.05
77235;BME280;66253;50.526;14.974;2023-07-31T00:41:28;98911.71;;;15.68;78.07
77235;BME280;66253;50.526;14.974;2023-07-31T00:43:57;98913.58;;;15.67;78.29
77235;BME280;66253;50.526;14.974;2023-07-31T00:46:26;98914.38;;;15.65;78.17
77235;BME280;66253;50.526;14.974;2023-07-31T00:48:54;98917.48;;;15.63;78.21
77235;BME280;66253;50.526;14.974;2023-07-31T00:51:22;98915.70;;;15.61;78.30
77235;BME280;66253;50.526;14.974;2023-07-31T00:53:51;98924.30;;;15.60;78.25
77235;BME280;66253;50.526;14.974;2023-07-31T00:56:19;98918.80;;;15.55;78.13
77235;BME280;66253;50.526;14.974;2023-07-31T00:58:48;98921.73;;;15.53;78.15
77235;BME280;66253;50.526;14.974;2023-07-31T01:01:16;98922.12;;;15.48;77.93
77235;BME280;66253;50.526;14.974;2023-07-31T01:03:45;98924.65;;;15.44;78.13
77235;BME280;66253;50.526;14.974;2023-07-31T01:06:19;98919.79;;;15.43;78.22
77235;BME280;66253;50.526;14.974;2023-07-31T01:08:57;98917.98;;;15.41;78.21
77235;BME280;66253;50.526;14.974;2023-07-31T01:11:29;98913.59;;;15.39;78.01
77235;BME280;66253;50.526;14.974;2023-07-31T01:13:58;98912.69;;;15.37;78.26
77235;BME280;66253;50.526;14.974;2023-07-31T01:16:27;98911.55;;;15.34;78.06
77235;BME280;66253;50.526;14.974;2023-07-31T01:18:56;98907.64;;;15.32;78.18
77235;BME280;66253;50.526;14.974;2023-07-31T01:21:45;98908.30;;;15.27;78.18
77235;BME280;66253;50.526;14.974;2023-07-31T01:24:26;98901.36;;;15.24;78.00
77235;BME280;66253;50.526;14.974;2023-07-31T01:27:01;98901.99;;;15.22;78.23
77235;BME280;66253;50.526;14.974;2023-07-31T01:29:38;98900.85;;;15.19;78.07
77235;BME280;66253;50.526;14.974;2023-07-31T01:32:12;98902.04;;;15.15;77.99
77235;BME280;66253;50.526;14.974;2023-07-31T01:34:41;98900.89;;;15.13;78.19
77235;BME280;66253;50.526;14.974;2023-07-31T01:37:09;98900.59;;;15.12;78.16
77235;BME280;66253;50.526;14.974;2023-07-31T01:39:37;98900.86;;;15.11;78.05
77235;BME280;66253;50.526;14.974;2023-07-31T01:42:06;98902.14;;;15.08;77.98
77235;BME280;66253;50.526;14.974;2023-07-31T01:44:35;98899.31;;;15.04;78.15
77235;BME280;66253;50.526;14.974;2023-07-31T01:47:03;98899.95;;;15.00;78.07
77235;BME280;66253;50.526;14.974;2023-07-31T01:49:31;98900.88;;;14.97;78.13
77235;BME280;66253;50.526;14.974;2023-07-31T01:52:00;98898.10;;;14.94;78.36
77235;BME280;66253;50.526;14.974;2023-07-31T01:54:28;98901.45;;;14.93;78.47
77235;BME280;66253;50.526;14.974;2023-07-31T01:56:56;98899.70;;;14.89;78.37
77235;BME280;66253;50.526;14.974;2023-07-31T01:59:24;98896.20;;;14.83;78.39
77235;BME280;66253;50.526;14.974;2023-07-31T02:01:53;98898.65;;;14.73;78.65
77235;BME280;66253;50.526;14.974;2023-07-31T02:04:21;98894.90;;;14.64;78.43
77235;BME280;66253;50.526;14.974;2023-07-31T02:06:49;98894.27;;;14.59;78.60
77235;BME280;66253;50.526;14.974;2023-07-31T02:09:17;98893.94;;;14.56;79.39
77235;BME280;66253;50.526;14.974;2023-07-31T02:11:46;98890.94;;;14.51;78.97
77235;BME280;66253;50.526;14.974;2023-07-31T02:14:14;98890.47;;;14.45;79.15
77235;BME280;66253;50.526;14.974;2023-07-31T02:16:43;98892.59;;;14.38;79.15
77235;BME280;66253;50.526;14.974;2023-07-31T02:19:11;98893.85;;;14.33;79.66
77235;BME280;66253;50.526;14.974;2023-07-31T02:21:39;98892.09;;;14.26;80.75
77235;BME280;66253;50.526;14.974;2023-07-31T02:24:08;98897.95;;;14.20;80.60
77235;BME280;66253;50.526;14.974;2023-07-31T02:26:36;98897.79;;;14.15;80.80
77235;BME280;66253;50.526;14.974;2023-07-31T02:29:04;98893.77;;;14.09;80.43
77235;BME280;66253;50.526;14.974;2023-07-31T02:31:33;98894.69;;;14.04;80.02
77235;BME280;66253;50.526;14.974;2023-07-31T02:34:01;98891.00;;;14.02;80.11
77235;BME280;66253;50.526;14.974;2023-07-31T02:36:29;98892.25;;;14.02;80.54
77235;BME280;66253;50.526;14.974;2023-07-31T02:38:57;98892.35;;;14.00;81.90
77235;BME280;66253;50.526;14.974;2023-07-31T02:41:26;98890.88;;;14.00;82.66
77235;BME280;66253;50.526;14.974;2023-07-31T02:43:54;98889.06;;;13.99;81.61
77235;BME280;66253;50.526;14.974;2023-07-31T02:46:22;98885.14;;;13.96;81.20
77235;BME280;66253;50.526;14.974;2023-07-31T02:48:50;98884.38;;;13.95;82.19
77235;BME280;66253;50.526;14.974;2023-07-31T02:51:19;98893.61;;;13.95;81.47
77235;BME280;66253;50.526;14.974;2023-07-31T02:53:47;98896.82;;;13.96;81.34
77235;BME280;66253;50.526;14.974;2023-07-31T02:56:15;98898.63;;;13.97;81.18
77235;BME280;66253;50.526;14.974;2023-07-31T02:58:44;98896.73;;;13.97;81.98
77235;BME280;66253;50.526;14.974;2023-07-31T03:01:12;98895.63;;;13.96;83.03
77235;BME280;66253;50.526;14.974;2023-07-31T03:03:41;98898.64;;;13.97;83.38
77235;BME280;66253;50.526;14.974;2023-07-31T03:09:31;98891.17;;;13.93;87.50
77235;BME280;66253;50.526;14.974;2023-07-31T03:12:01;98887.37;;;13.87;88.60
77235;BME280;66253;50.526;14.974;2023-07-31T03:14:29;98887.95;;;13.83;87.29
77235;BME280;66253;50.526;14.974;2023-07-31T03:16:59;98885.48;;;13.75;87.66
77235;BME280;66253;50.526;14.974;2023-07-31T03:19:26;98888.31;;;13.72;86.50
77235;BME280;66253;50.526;14.974;2023-07-31T03:21:54;98886.87;;;13.70;87.65
77235;BME280;66253;50.526;14.974;2023-07-31T03:24:22;98886.50;;;13.69;87.16
77235;BME280;66253;50.526;14.974;2023-07-31T03:26:50;98887.40;;;13.68;87.06
77235;BME280;66253;50.526;14.974;2023-07-31T03:29:19;98885.46;;;13.69;86.58
77235;BME280;66253;50.526;14.974;2023-07-31T03:31:47;98885.94;;;13.69;87.10
77235;BME280;66253;50.526;14.974;2023-07-31T03:34:15;98886.71;;;13.72;88.49
77235;BME280;66253;50.526;14.974;2023-07-31T03:36:44;98885.73;;;13.72;87.58
77235;BME280;66253;50.526;14.974;2023-07-31T03:39:12;98889.70;;;13.72;86.49
77235;BME280;66253;50.526;14.974;2023-07-31T03:41:41;98889.73;;;13.71;86.53
77235;BME280;66253;50.526;14.974;2023-07-31T03:44:09;98891.67;;;13.73;86.26
77235;BME280;66253;50.526;14.974;2023-07-31T03:46:37;98890.77;;;13.73;86.88
77235;BME280;66253;50.526;14.974;2023-07-31T03:49:05;98895.73;;;13.74;87.18
77235;BME280;66253;50.526;14.974;2023-07-31T03:51:34;98896.06;;;13.71;86.51
77235;BME280;66253;50.526;14.974;2023-07-31T03:54:02;98896.02;;;13.70;85.56
77235;BME280;66253;50.526;14.974;2023-07-31T03:56:31;98897.98;;;13.69;85.07
77235;BME280;66253;50.526;14.974;2023-07-31T03:58:59;98894.23;;;13.69;84.71
77235;BME280;66253;50.526;14.974;2023-07-31T04:01:27;98894.80;;;13.68;84.41
77235;BME280;66253;50.526;14.974;2023-07-31T04:03:56;98893.98;;;13.62;84.02
77235;BME280;66253;50.526;14.974;2023-07-31T04:06:24;98895.35;;;13.60;83.95
77235;BME280;66253;50.526;14.974;2023-07-31T04:08:52;98896.73;;;13.60;84.00
77235;BME280;66253;50.526;14.974;2023-07-31T04:11:20;98900.33;;;13.60;84.16
77235;BME280;66253;50.526;14.974;2023-07-31T04:13:49;98899.52;;;13.62;84.23
77235;BME280;66253;50.526;14.974;2023-07-31T04:16:17;98900.95;;;13.63;85.03
77235;BME280;66253;50.526;14.974;2023-07-31T04:18:45;98898.81;;;13.64;86.61
77235;BME280;66253;50.526;14.974;2023-07-31T04:21:14;98899.64;;;13.65;86.56
77235;BME280;66253;50.526;14.974;2023-07-31T04:23:42;98898.23;;;13.65;86.13
77235;BME280;66253;50.526;14.974;2023-07-31T04:26:10;98899.14;;;13.67;85.38
77235;BME280;66253;50.526;14.974;2023-07-31T04:28:39;98901.14;;;13.70;85.15
77235;BME280;66253;50.526;14.974;2023-07-31T04:31:07;98900.77;;;13.75;84.81
77235;BME280;66253;50.526;14.974;2023-07-31T04:33:35;98904.31;;;13.81;84.71
77235;BME280;66253;50.526;14.974;2023-07-31T04:36:04;98901.82;;;13.86;84.79
77235;BME280;66253;50.526;14.974;2023-07-31T04:38:32;98902.23;;;13.90;84.71
77235;BME280;66253;50.526;14.974;2023-07-31T04:41:01;98901.09;;;13.94;84.61
77235;BME280;66253;50.526;14.974;2023-07-31T04:43:29;98902.70;;;13.98;84.45
77235;BME280;66253;50.526;14.974;2023-07-31T04:45:57;98897.74;;;14.02;84.28
77235;BME280;66253;50.526;14.974;2023-07-31T04:48:26;98892.92;;;14.06;84.67
77235;BME280;66253;50.526;14.974;2023-07-31T04:50:54;98890.48;;;14.12;84.43
77235;BME280;66253;50.526;14.974;2023-07-31T04:53:23;98892.61;;;14.15;84.34
77235;BME280;66253;50.526;14.974;2023-07-31T04:55:51;98894.14;;;14.20;84.23
77235;BME280;66253;50.526;14.974;2023-07-31T04:58:19;98891.90;;;14.22;83.95
77235;BME280;66253;50.526;14.974;2023-07-31T05:00:48;98887.04;;;14.23;83.77
77235;BME280;66253;50.526;14.974;2023-07-31T05:03:16;98886.30;;;14.26;83.56
77235;BME280;66253;50.526;14.974;2023-07-31T05:05:44;98888.09;;;14.27;83.50
77235;BME280;66253;50.526;14.974;2023-07-31T05:08:13;98888.30;;;14.29;83.07
77235;BME280;66253;50.526;14.974;2023-07-31T05:10:41;98891.79;;;14.30;83.05
77235;BME280;66253;50.526;14.974;2023-07-31T05:13:09;98895.25;;;14.32;83.00
77235;BME280;66253;50.526;14.974;2023-07-31T05:15:37;98894.31;;;14.36;83.14
77235;BME280;66253;50.526;14.974;2023-07-31T05:18:06;98896.15;;;14.39;82.76
77235;BME280;66253;50.526;14.974;2023-07-31T05:20:34;98895.98;;;14.43;83.16
77235;BME280;66253;50.526;14.974;2023-07-31T05:23:02;98894.95;;;14.48;83.02
77235;BME280;66253;50.526;14.974;2023-07-31T05:25:30;98900.51;;;14.52;83.07
77235;BME280;66253;50.526;14.974;2023-07-31T05:27:59;98894.39;;;14.55;82.82
77235;BME280;66253;50.526;14.974;2023-07-31T05:30:29;98888.05;;;14.59;82.77
77235;BME280;66253;50.526;14.974;2023-07-31T05:32:57;98882.24;;;14.64;82.71
77235;BME280;66253;50.526;14.974;2023-07-31T05:35:25;98883.08;;;14.66;82.50
77235;BME280;66253;50.526;14.974;2023-07-31T05:37:54;98890.64;;;14.70;82.52
77235;BME280;66253;50.526;14.974;2023-07-31T05:40:22;98891.48;;;14.77;82.51
77235;BME280;66253;50.526;14.974;2023-07-31T05:42:50;98887.16;;;14.82;82.64
77235;BME280;66253;50.526;14.974;2023-07-31T05:45:19;98891.42;;;14.85;82.32
77235;BME280;66253;50.526;14.974;2023-07-31T05:47:47;98892.29;;;14.89;82.26
77235;BME280;66253;50.526;14.974;2023-07-31T05:50:15;98889.23;;;14.93;82.31
77235;BME280;66253;50.526;14.974;2023-07-31T05:52:44;98892.21;;;14.92;81.85
77235;BME280;66253;50.526;14.974;2023-07-31T05:55:12;98891.46;;;14.93;82.24
77235;BME280;66253;50.526;14.974;2023-07-31T05:57:41;98888.17;;;14.95;82.26
77235;BME280;66253;50.526;14.974;2023-07-31T06:00:11;98888.77;;;14.98;82.04
77235;BME280;66253;50.526;14.974;2023-07-31T06:02:40;98884.91;;;15.01;81.88
77235;BME280;66253;50.526;14.974;2023-07-31T06:05:09;98884.70;;;15.04;82.08
77235;BME280;66253;50.526;14.974;2023-07-31T06:07:37;98878.39;;;15.06;81.77
77235;BME280;66253;50.526;14.974;2023-07-31T06:10:07;98878.78;;;15.07;81.53
77235;BME280;66253;50.526;14.974;2023-07-31T06:12:35;98865.96;;;15.11;81.73
77235;BME280;66253;50.526;14.974;2023-07-31T06:15:05;98868.14;;;15.11;81.58
77235;BME280;66253;50.526;14.974;2023-07-31T06:17:33;98871.09;;;15.13;81.79
77235;BME280;66253;50.526;14.974;2023-07-31T06:20:02;98869.23;;;15.17;81.61
77235;BME280;66253;50.526;14.974;2023-07-31T06:22:32;98870.38;;;15.20;81.63
77235;BME280;66253;50.526;14.974;2023-07-31T06:25:00;98871.92;;;15.24;81.51
77235;BME280;66253;50.526;14.974;2023-07-31T06:27:30;98867.02;;;15.27;81.40
77235;BME280;66253;50.526;14.974;2023-07-31T06:29:58;98867.05;;;15.33;81.87
77235;BME280;66253;50.526;14.974;2023-07-31T06:32:26;98862.87;;;15.40;81.46
77235;BME280;66253;50.526;14.974;2023-07-31T06:34:55;98864.23;;;15.47;81.23
77235;BME280;66253;50.526;14.974;2023-07-31T06:37:23;98860.50;;;15.54;81.22
77235;BME280;66253;50.526;14.974;2023-07-31T06:39:51;98860.34;;;15.63;81.37
77235;BME280;66253;50.526;14.974;2023-07-31T06:42:19;98861.09;;;15.73;80.95
77235;BME280;66253;50.526;14.974;2023-07-31T06:44:48;98865.14;;;15.84;80.91
77235;BME280;66253;50.526;14.974;2023-07-31T06:47:19;98863.05;;;15.95;80.80
77235;BME280;66253;50.526;14.974;2023-07-31T06:49:47;98857.92;;;16.04;80.25
77235;BME280;66253;50.526;14.974;2023-07-31T06:52:16;98856.80;;;16.14;79.70
77235;BME280;66253;50.526;14.974;2023-07-31T06:54:44;98861.62;;;16.24;79.47
77235;BME280;66253;50.526;14.974;2023-07-31T06:57:12;98861.41;;;16.33;79.08
77235;BME280;66253;50.526;14.974;2023-07-31T06:59:40;98862.77;;;16.43;79.25
77235;BME280;66253;50.526;14.974;2023-07-31T07:02:09;98858.39;;;16.54;78.89
77235;BME280;66253;50.526;14.974;2023-07-31T07:10:10;98861.10;;;16.82;77.75
77235;BME280;66253;50.526;14.974;2023-07-31T07:12:38;98861.63;;;16.88;77.75
77235;BME280;66253;50.526;14.974;2023-07-31T07:15:08;98861.55;;;16.95;78.11
77235;BME280;66253;50.526;14.974;2023-07-31T07:17:36;98862.13;;;17.02;78.03
77235;BME280;66253;50.526;14.974;2023-07-31T07:20:06;98864.83;;;17.10;77.96
77235;BME280;66253;50.526;14.974;2023-07-31T07:22:36;98868.55;;;17.20;77.65
77235;BME280;66253;50.526;14.974;2023-07-31T07:25:05;98867.73;;;17.24;77.14
77235;BME280;66253;50.526;14.974;2023-07-31T07:27:33;98865.89;;;17.30;77.12
77235;BME280;66253;50.526;14.974;2023-07-31T07:30:02;98858.83;;;17.33;77.11
77235;BME280;66253;50.526;14.974;2023-07-31T07:32:32;98856.46;;;17.36;77.17
77235;BME280;66253;50.526;14.974;2023-07-31T07:35:00;98861.33;;;17.40;76.78
77235;BME280;66253;50.526;14.974;2023-07-31T07:37:29;98862.49;;;17.43;76.69
77235;BME280;66253;50.526;14.974;2023-07-31T07:39:58;98858.71;;;17.43;76.58
77235;BME280;66253;50.526;14.974;2023-07-31T07:42:26;98858.27;;;17.44;76.85
77235;BME280;66253;50.526;14.974;2023-07-31T07:44:55;98854.25;;;17.46;76.60
77235;BME280;66253;50.526;14.974;2023-07-31T07:47:23;98853.56;;;17.48;76.61
77235;BME280;66253;50.526;14.974;2023-07-31T07:49:51;98856.42;;;17.49;76.62
77235;BME280;66253;50.526;14.974;2023-07-31T07:52:20;98852.30;;;17.48;76.53
77235;BME280;66253;50.526;14.974;2023-07-31T07:54:49;98848.18;;;17.48;76.85
77235;BME280;66253;50.526;14.974;2023-07-31T07:57:18;98843.15;;;17.48;76.78
77235;BME280;66253;50.526;14.974;2023-07-31T07:59:46;98843.61;;;17.47;76.21
77235;BME280;66253;50.526;14.974;2023-07-31T08:14:59;98848.42;;;17.49;76.50
77235;BME280;66253;50.526;14.974;2023-07-31T08:17:27;98849.65;;;17.47;76.21
77235;BME280;66253;50.526;14.974;2023-07-31T08:19:55;98853.58;;;17.47;76.44
77235;BME280;66253;50.526;14.974;2023-07-31T08:22:24;98857.08;;;17.49;76.67
77235;BME280;66253;50.526;14.974;2023-07-31T08:24:52;98857.34;;;17.50;76.87
77235;BME280;66253;50.526;14.974;2023-07-31T08:27:21;98861.76;;;17.53;76.82
77235;BME280;66253;50.526;14.974;2023-07-31T08:29:49;98862.05;;;17.55;76.81
77235;BME280;66253;50.526;14.974;2023-07-31T08:32:19;98867.14;;;17.58;76.87
77235;BME280;66253;50.526;14.974;2023-07-31T08:34:48;98875.13;;;17.61;76.70
77235;BME280;66253;50.526;14.974;2023-07-31T08:37:16;98876.02;;;17.65;76.85
77235;BME280;66253;50.526;14.974;2023-07-31T08:39:44;98879.12;;;17.69;76.76
77235;BME280;66253;50.526;14.974;2023-07-31T08:42:13;98877.16;;;17.72;76.79
77235;BME280;66253;50.526;14.974;2023-07-31T08:44:42;98872.58;;;17.72;76.48
77235;BME280;66253;50.526;14.974;2023-07-31T08:47:12;98873.39;;;17.75;76.44
77235;BME280;66253;50.526;14.974;2023-07-31T08:49:40;98860.77;;;17.73;75.67
77235;BME280;66253;50.526;14.974;2023-07-31T08:52:11;98859.63;;;17.74;76.16
77235;BME280;66253;50.526;14.974;2023-07-31T08:54:39;98867.34;;;17.75;76.43
77235;BME280;66253;50.526;14.974;2023-07-31T08:57:08;98870.92;;;17.76;76.36
77235;BME280;66253;50.526;14.974;2023-07-31T08:59:37;98876.16;;;17.77;76.40
77235;BME280;66253;50.526;14.974;2023-07-31T09:02:08;98865.17;;;17.78;76.41
77235;BME280;66253;50.526;14.974;2023-07-31T09:04:36;98855.11;;;17.80;76.24
77235;BME280;66253;50.526;14.974;2023-07-31T09:07:06;98850.52;;;17.83;76.44
77235;BME280;66253;50.526;14.974;2023-07-31T09:09:35;98851.04;;;17.87;76.63
77235;BME280;66253;50.526;14.974;2023-07-31T09:12:04;98851.77;;;17.90;76.54
77235;BME280;66253;50.526;14.974;2023-07-31T09:14:33;98853.19;;;17.90;76.11
77235;BME280;66253;50.526;14.974;2023-07-31T09:17:02;98843.96;;;17.91;76.03
77235;BME280;66253;50.526;14.974;2023-07-31T09:19:34;98844.38;;;17.92;75.86
77235;BME280;66253;50.526;14.974;2023-07-31T09:22:03;98839.48;;;17.94;75.80
77235;BME280;66253;50.526;14.974;2023-07-31T09:24:32;98834.32;;;17.96;76.04
77235;BME280;66253;50.526;14.974;2023-07-31T09:27:02;98828.14;;;17.97;76.00
77235;BME280;66253;50.526;14.974;2023-07-31T09:29:30;98825.41;;;17.99;76.22
77235;BME280;66253;50.526;14.974;2023-07-31T09:31:58;98825.52;;;18.01;75.93
77235;BME280;66253;50.526;14.974;2023-07-31T09:34:36;98825.26;;;18.02;75.58
77235;BME280;66253;50.526;14.974;2023-07-31T09:37:06;98827.97;;;18.01;75.45
77235;BME280;66253;50.526;14.974;2023-07-31T09:39:46;98825.80;;;18.02;75.52
77235;BME280;66253;50.526;14.974;2023-07-31T09:42:15;98828.46;;;18.05;76.06
77235;BME280;66253;50.526;14.974;2023-07-31T09:44:51;98834.20;;;18.08;76.17
77235;BME280;66253;50.526;14.974;2023-07-31T09:47:26;98844.00;;;18.11;75.95
77235;BME280;66253;50.526;14.974;2023-07-31T09:49:54;98841.84;;;18.14;75.81
77235;BME280;66253;50.526;14.974;2023-07-31T09:52:22;98835.67;;;18.15;75.59
77235;BME280;66253;50.526;14.974;2023-07-31T09:54:53;98833.69;;;18.18;75.87
77235;BME280;66253;50.526;14.974;2023-07-31T09:57:23;98831.95;;;18.20;75.49
77235;BME280;66253;50.526;14.974;2023-07-31T09:59:55;98828.30;;;18.22;75.72
77235;BME280;66253;50.526;14.974;2023-07-31T10:02:23;98821.61;;;18.23;75.53
77235;BME280;66253;50.526;14.974;2023-07-31T10:04:53;98822.23;;;18.26;76.06
77235;BME280;66253;50.526;14.974;2023-07-31T10:07:26;98815.09;;;18.30;75.90
77235;BME280;66253;50.526;14.974;2023-07-31T10:09:57;98804.40;;;18.33;75.45
77235;BME280;66253;50.526;14.974;2023-07-31T10:12:27;98805.34;;;18.36;74.84
77235;BME280;66253;50.526;14.974;2023-07-31T10:14:56;98800.31;;;18.38;74.86
77235;BME280;66253;50.526;14.974;2023-07-31T10:17:25;98798.65;;;18.41;74.89
77235;BME280;66253;50.526;14.974;2023-07-31T10:19:54;98798.72;;;18.44;74.77
77235;BME280;66253;50.526;14.974;2023-07-31T10:22:22;98798.77;;;18.47;74.79
77235;BME280;66253;50.526;14.974;2023-07-31T10:24:53;98802.34;;;18.49;74.73
77235;BME280;66253;50.526;14.974;2023-07-31T10:27:22;98798.54;;;18.51;74.11
77235;BME280;66253;50.526;14.974;2023-07-31T10:29:51;98792.59;;;18.53;74.49
77235;BME280;66253;50.526;14.974;2023-07-31T10:32:18;98787.30;;;18.57;74.33
77235;BME280;66253;50.526;14.974;2023-07-31T10:34:48;98782.17;;;18.60;74.32
77235;BME280;66253;50.526;14.974;2023-07-31T10:37:24;98780.20;;;18.62;74.31
77235;BME280;66253;50.526;14.974;2023-07-31T10:40:01;98775.71;;;18.65;74.58
77235;BME280;66253;50.526;14.974;2023-07-31T10:42:35;98777.09;;;18.69;74.73
77235;BME280;66253;50.526;14.974;2023-07-31T10:45:07;98781.67;;;18.72;74.54
77235;BME280;66253;50.526;14.974;2023-07-31T10:47:39;98777.34;;;18.74;74.13
77235;BME280;66253;50.526;14.974;2023-07-31T10:50:18;98772.38;;;18.77;73.94
77235;BME280;66253;50.526;14.974;2023-07-31T10:52:48;98776.52;;;18.81;73.64
77235;BME280;66253;50.526;14.974;2023-07-31T10:55:24;98779.39;;;18.85;73.64
77235;BME280;66253;50.526;14.974;2023-07-31T10:57:53;98767.52;;;18.90;73.20
77235;BME280;66253;50.526;14.974;2023-07-31T11:00:24;98761.26;;;18.94;72.60
77235;BME280;66253;50.526;14.974;2023-07-31T11:03:00;98758.16;;;18.98;72.54
77235;BME280;66253;50.526;14.974;2023-07-31T11:05:49;98757.48;;;19.06;73.04
77235;BME280;66253;50.526;14.974;2023-07-31T11:08:19;98753.14;;;19.13;73.23
77235;BME280;66253;50.526;14.974;2023-07-31T11:10:49;98750.02;;;19.18;73.05
77235;BME280;66253;50.526;14.974;2023-07-31T11:13:18;98745.88;;;19.26;72.90
77235;BME280;66253;50.526;14.974;2023-07-31T11:15:46;98740.09;;;19.34;72.34
77235;BME280;66253;50.526;14.974;2023-07-31T11:18:15;98734.59;;;19.44;72.41
77235;BME280;66253;50.526;14.974;2023-07-31T11:20:43;98734.68;;;19.55;72.77
77235;BME280;66253;50.526;14.974;2023-07-31T11:23:12;98731.72;;;19.68;72.64
77235;BME280;66253;50.526;14.974;2023-07-31T11:25:41;98725.70;;;19.81;72.46
77235;BME280;66253;50.526;14.974;2023-07-31T11:28:10;98722.20;;;19.93;71.17
77235;BME280;66253;50.526;14.974;2023-07-31T11:34:06;98722.06;;;20.26;71.22
77235;BME280;66253;50.526;14.974;2023-07-31T11:36:35;98715.33;;;20.43;71.48
77235;BME280;66253;50.526;14.974;2023-07-31T11:39:07;98709.81;;;20.64;71.89
77235;BME280;66253;50.526;14.974;2023-07-31T11:41:36;98705.67;;;20.83;71.10
77235;BME280;66253;50.526;14.974;2023-07-31T11:44:04;98706.73;;;21.00;70.48
77235;BME280;66253;50.526;14.974;2023-07-31T11:46:33;98705.40;;;21.13;69.82
77235;BME280;66253;50.526;14.974;2023-07-31T11:49:02;98700.51;;;21.23;68.74
77235;BME280;66253;50.526;14.974;2023-07-31T11:51:30;98698.52;;;21.32;67.87
77235;BME280;66253;50.526;14.974;2023-07-31T11:54:00;98699.38;;;21.40;68.41
77235;BME280;66253;50.526;14.974;2023-07-31T11:56:29;98701.94;;;21.47;68.12
77235;BME280;66253;50.526;14.974;2023-07-31T11:58:59;98699.80;;;21.52;67.62
77235;BME280;66253;50.526;14.974;2023-07-31T12:01:28;98696.98;;;21.57;67.01
77235;BME280;66253;50.526;14.974;2023-07-31T12:03:57;98692.07;;;21.63;67.37
77235;BME280;66253;50.526;14.974;2023-07-31T12:06:35;98685.17;;;21.67;66.71
77235;BME280;66253;50.526;14.974;2023-07-31T12:09:04;98675.34;;;21.72;67.34
77235;BME280;66253;50.526;14.974;2023-07-31T12:11:33;98672.44;;;21.79;67.44
77235;BME280;66253;50.526;14.974;2023-07-31T12:14:21;98666.63;;;21.87;66.99
77235;BME280;66253;50.526;14.974;2023-07-31T12:16:49;98663.87;;;21.91;66.14
77235;BME280;66253;50.526;14.974;2023-07-31T12:19:21;98666.02;;;21.94;66.14
77235;BME280;66253;50.526;14.974;2023-07-31T12:21:51;98658.27;;;21.95;64.72
77235;BME280;66253;50.526;14.974;2023-07-31T12:24:20;98652.46;;;21.95;65.33
77235;BME280;66253;50.526;14.974;2023-07-31T12:26:49;98653.05;;;21.96;64.57
77235;BME280;66253;50.526;14.974;2023-07-31T12:29:18;98646.64;;;21.96;64.27
77235;BME280;66253;50.526;14.974;2023-07-31T12:31:46;98644.06;;;21.96;64.20
77235;BME280;66253;50.526;14.974;2023-07-31T12:34:18;98637.05;;;21.99;63.95
77235;BME280;66253;50.526;14.974;2023-07-31T12:36:48;98630.99;;;22.02;63.82
77235;BME280;66253;50.526;14.974;2023-07-31T12:39:16;98627.09;;;22.07;64.23
77235;BME280;66253;50.526;14.974;2023-07-31T12:41:44;98618.02;;;22.14;63.78
77235;BME280;66253;50.526;14.974;2023-07-31T12:44:13;98612.07;;;22.17;63.45
77235;BME280;66253;50.526;14.974;2023-07-31T12:46:41;98609.37;;;22.23;62.88
77235;BME280;66253;50.526;14.974;2023-07-31T12:49:09;98612.91;;;22.28;62.61
77235;BME280;66253;50.526;14.974;2023-07-31T12:51:37;98616.56;;;22.36;62.08
77235;BME280;66253;50.526;14.974;2023-07-31T12:54:05;98613.23;;;22.42;61.82
77235;BME280;66253;50.526;14.974;2023-07-31T12:56:34;98610.96;;;22.47;61.48
77235;BME280;66253;50.526;14.974;2023-07-31T12:59:02;98608.09;;;22.50;60.90
77235;BME280;66253;50.526;14.974;2023-07-31T13:01:30;98608.52;;;22.53;60.36
77235;BME280;66253;50.526;14.974;2023-07-31T13:03:59;98605.31;;;22.58;60.93
77235;BME280;66253;50.526;14.974;2023-07-31T13:06:27;98604.60;;;22.67;60.44
77235;BME280;66253;50.526;14.974;2023-07-31T13:08:55;98598.96;;;22.77;60.81
77235;BME280;66253;50.526;14.974;2023-07-31T13:11:24;98594.45;;;22.84;59.91
77235;BME280;66253;50.526;14.974;2023-07-31T13:13:52;98597.20;;;22.89;60.07
77235;BME280;66253;50.526;14.974;2023-07-31T13:16:20;98594.02;;;22.94;59.96
77235;BME280;66253;50.526;14.974;2023-07-31T13:18:48;98592.17;;;22.98;59.70
77235;BME280;66253;50.526;14.974;2023-07-31T13:21:17;98590.95;;;23.01;59.67
77235;BME280;66253;50.526;14.974;2023-07-31T13:23:46;98590.69;;;23.02;58.83
77235;BME280;66253;50.526;14.974;2023-07-31T13:26:14;98589.75;;;23.01;58.68